sensor_id;sensor_type;location;lat;lon;timestamp;P1;durP1;ratioP1;P2;durP2;ratioP2
56269;SDS011;42176;43.240;27.880;2022-12-07T00:01:42;3.35;;;1.77;;
56269;SDS011;42176;43.240;27.880;2022-12-07T00:04:12;2.83;;;2.33;;
56269;SDS011;42176;43.240;27.880;2022-12-07T00:06:40;3.00;;;2.00;;
56269;SDS011;42176;43.240;27.880;2022-12-07T00:09:11;4.57;;;2.03;;
56269;SDS011;42176;43.240;27.880;2022-12-07T00:11:40;3.40;;;1.92;;
56269;SDS011;42176;43.240;27.880;2022-12-07T00:14:08;3.85;;;1.75;;
56269;SDS011;42176;43.240;27.880;2022-12-07T00:16:36;5.82;;;2.70;;
56269;SDS011;42176;43.240;27.880;2022-12-07T00:19:02;4.38;;;2.20;;
56269;SDS011;42176;43.240;27.880;2022-12-07T00:21:29;2.35;;;1.92;;
56269;SDS011;42176;43.240;27.880;2022-12-07T00:23:57;4.50;;;1.35;;
56269;SDS011;42176;43.240;27.880;2022-12-07T00:26:27;3.72;;;1.77;;
56269;SDS011;42176;43.240;27.880;2022-12-07T00:28:55;4.03;;;1.50;;
56269;SDS011;42176;43.240;27.880;2022-12-07T00:31:23;1.85;;;1.17;;
56269;SDS011;42176;43.240;27.880;2022-12-07T00:33:51;2.80;;;1.75;;
56269;SDS011;42176;43.240;27.880;2022-12-07T00:36:21;3.03;;;2.00;;
56269;SDS011;42176;43.240;27.880;2022-12-07T00:38:48;2.83;;;2.03;;
56269;SDS011;42176;43.240;27.880;2022-12-07T00:41:14;2.00;;;1.65;;
56269;SDS011;42176;43.240;27.880;2022-12-07T00:43:42;5.72;;;2.35;;
56269;SDS011;42176;43.240;27.880;2022-12-07T00:46:08;2.03;;;1.40;;
56269;SDS011;42176;43.240;27.880;2022-12-07T00:48:33;3.33;;;1.40;;
56269;SDS011;42176;43.240;27.880;2022-12-07T00:50:59;7.82;;;0.98;;
56269;SDS011;42176;43.240;27.880;2022-12-07T00:53:25;3.28;;;2.08;;
56269;SDS011;42176;43.240;27.880;2022-12-07T00:55:51;1.83;;;1.58;;
56269;SDS011;42176;43.240;27.880;2022-12-07T00:58:17;5.18;;;2.10;;
56269;SDS011;42176;43.240;27.880;2022-12-07T01:00:43;2.85;;;1.35;;
56269;SDS011;42176;43.240;27.880;2022-12-07T01:03:10;3.00;;;1.90;;
56269;SDS011;42176;43.240;27.880;2022-12-07T01:05:37;4.32;;;1.45;;
56269;SDS011;42176;43.240;27.880;2022-12-07T01:08:03;3.63;;;1.60;;
56269;SDS011;42176;43.240;27.880;2022-12-07T01:10:28;9.48;;;1.70;;
56269;SDS011;42176;43.240;27.880;2022-12-07T01:12:55;2.75;;;1.70;;
56269;SDS011;42176;43.240;27.880;2022-12-07T01:15:21;3.58;;;1.98;;
56269;SDS011;42176;43.240;27.880;2022-12-07T01:17:46;2.80;;;1.77;;
56269;SDS011;42176;43.240;27.880;2022-12-07T01:20:12;2.53;;;1.42;;
56269;SDS011;42176;43.240;27.880;2022-12-07T01:22:38;4.45;;;2.08;;
56269;SDS011;42176;43.240;27.880;2022-12-07T01:25:05;3.40;;;2.03;;
56269;SDS011;42176;43.240;27.880;2022-12-07T01:27:32;2.70;;;0.90;;
56269;SDS011;42176;43.240;27.880;2022-12-07T01:29:59;3.47;;;1.73;;
56269;SDS011;42176;43.240;27.880;2022-12-07T01:32:24;2.80;;;1.42;;
56269;SDS011;42176;43.240;27.880;2022-12-07T01:34:50;5.60;;;1.70;;
56269;SDS011;42176;43.240;27.880;2022-12-07T01:37:15;1.75;;;1.60;;
56269;SDS011;42176;43.240;27.880;2022-12-07T01:39:41;3.67;;;1.40;;
56269;SDS011;42176;43.240;27.880;2022-12-07T01:42:10;3.33;;;1.73;;
56269;SDS011;42176;43.240;27.880;2022-12-07T01:47:39;2.30;;;1.90;;
56269;SDS011;42176;43.240;27.880;2022-12-07T01:50:05;3.47;;;1.60;;
56269;SDS011;42176;43.240;27.880;2022-12-07T01:52:31;2.72;;;1.83;;
56269;SDS011;42176;43.240;27.880;2022-12-07T01:55:10;3.35;;;2.20;;
56269;SDS011;42176;43.240;27.880;2022-12-07T01:57:39;5.90;;;2.50;;
56269;SDS011;42176;43.240;27.880;2022-12-07T02:00:08;4.60;;;2.92;;
56269;SDS011;42176;43.240;27.880;2022-12-07T02:02:41;8.60;;;2.22;;
56269;SDS011;42176;43.240;27.880;2022-12-07T02:05:12;6.20;;;2.00;;
56269;SDS011;42176;43.240;27.880;2022-12-07T02:07:38;4.25;;;2.30;;
56269;SDS011;42176;43.240;27.880;2022-12-07T02:10:15;5.30;;;2.28;;
56269;SDS011;42176;43.240;27.880;2022-12-07T02:12:42;3.75;;;2.75;;
56269;SDS011;42176;43.240;27.880;2022-12-07T02:15:12;4.78;;;3.10;;
56269;SDS011;42176;43.240;27.880;2022-12-07T02:17:42;4.65;;;2.38;;
56269;SDS011;42176;43.240;27.880;2022-12-07T02:28:37;5.85;;;3.75;;
56269;SDS011;42176;43.240;27.880;2022-12-07T02:31:12;5.47;;;2.67;;
56269;SDS011;42176;43.240;27.880;2022-12-07T02:33:45;5.90;;;3.25;;
56269;SDS011;42176;43.240;27.880;2022-12-07T02:36:22;6.90;;;3.88;;
56269;SDS011;42176;43.240;27.880;2022-12-07T02:38:58;6.43;;;3.30;;
56269;SDS011;42176;43.240;27.880;2022-12-07T02:41:33;6.50;;;3.25;;
56269;SDS011;42176;43.240;27.880;2022-12-07T02:44:22;8.63;;;3.92;;
56269;SDS011;42176;43.240;27.880;2022-12-07T02:46:52;6.05;;;3.70;;
56269;SDS011;42176;43.240;27.880;2022-12-07T02:49:21;8.15;;;4.00;;
56269;SDS011;42176;43.240;27.880;2022-12-07T02:51:48;7.35;;;3.90;;
56269;SDS011;42176;43.240;27.880;2022-12-07T02:54:15;6.40;;;4.10;;
56269;SDS011;42176;43.240;27.880;2022-12-07T03:02:31;6.65;;;3.97;;
56269;SDS011;42176;43.240;27.880;2022-12-07T03:07:54;8.73;;;5.32;;
56269;SDS011;42176;43.240;27.880;2022-12-07T03:10:46;10.18;;;5.53;;
56269;SDS011;42176;43.240;27.880;2022-12-07T03:16:11;9.05;;;3.70;;
56269;SDS011;42176;43.240;27.880;2022-12-07T03:18:51;10.98;;;5.07;;
56269;SDS011;42176;43.240;27.880;2022-12-07T03:21:27;9.05;;;5.38;;
56269;SDS011;42176;43.240;27.880;2022-12-07T03:23:58;12.43;;;6.68;;
56269;SDS011;42176;43.240;27.880;2022-12-07T03:26:32;7.10;;;4.55;;
56269;SDS011;42176;43.240;27.880;2022-12-07T03:29:02;17.95;;;6.10;;
56269;SDS011;42176;43.240;27.880;2022-12-07T03:31:35;10.93;;;5.20;;
56269;SDS011;42176;43.240;27.880;2022-12-07T03:36:41;14.05;;;5.03;;
56269;SDS011;42176;43.240;27.880;2022-12-07T03:41:57;8.82;;;5.57;;
56269;SDS011;42176;43.240;27.880;2022-12-07T03:44:25;8.77;;;4.05;;
56269;SDS011;42176;43.240;27.880;2022-12-07T03:46:58;9.57;;;4.97;;
56269;SDS011;42176;43.240;27.880;2022-12-07T03:49:37;11.60;;;4.90;;
56269;SDS011;42176;43.240;27.880;2022-12-07T03:52:33;9.43;;;5.65;;
56269;SDS011;42176;43.240;27.880;2022-12-07T03:55:23;5.15;;;3.53;;
56269;SDS011;42176;43.240;27.880;2022-12-07T03:57:54;10.18;;;4.78;;
56269;SDS011;42176;43.240;27.880;2022-12-07T04:00:23;10.23;;;5.10;;
56269;SDS011;42176;43.240;27.880;2022-12-07T04:02:51;10.23;;;6.55;;
56269;SDS011;42176;43.240;27.880;2022-12-07T04:05:17;12.57;;;6.95;;
56269;SDS011;42176;43.240;27.880;2022-12-07T04:07:43;8.60;;;4.93;;
56269;SDS011;42176;43.240;27.880;2022-12-07T04:10:09;7.50;;;4.38;;
56269;SDS011;42176;43.240;27.880;2022-12-07T04:12:35;12.70;;;6.07;;
56269;SDS011;42176;43.240;27.880;2022-12-07T04:15:00;12.98;;;7.10;;
56269;SDS011;42176;43.240;27.880;2022-12-07T04:17:26;8.32;;;5.07;;
56269;SDS011;42176;43.240;27.880;2022-12-07T04:19:51;11.63;;;5.43;;
56269;SDS011;42176;43.240;27.880;2022-12-07T04:22:17;8.55;;;5.40;;
56269;SDS011;42176;43.240;27.880;2022-12-07T04:24:42;11.75;;;6.53;;
56269;SDS011;42176;43.240;27.880;2022-12-07T04:27:07;15.35;;;8.70;;
56269;SDS011;42176;43.240;27.880;2022-12-07T04:29:33;16.33;;;6.65;;
56269;SDS011;42176;43.240;27.880;2022-12-07T04:31:58;13.52;;;6.55;;
56269;SDS011;42176;43.240;27.880;2022-12-07T04:34:24;11.63;;;5.70;;
56269;SDS011;42176;43.240;27.880;2022-12-07T04:36:49;12.43;;;7.97;;
56269;SDS011;42176;43.240;27.880;2022-12-07T04:39:20;9.32;;;5.15;;
56269;SDS011;42176;43.240;27.880;2022-12-07T04:41:47;11.35;;;7.07;;
56269;SDS011;42176;43.240;27.880;2022-12-07T04:44:14;13.57;;;8.10;;
56269;SDS011;42176;43.240;27.880;2022-12-07T04:46:40;15.40;;;9.25;;
56269;SDS011;42176;43.240;27.880;2022-12-07T04:49:06;16.83;;;11.02;;
56269;SDS011;42176;43.240;27.880;2022-12-07T04:51:32;16.00;;;8.38;;
56269;SDS011;42176;43.240;27.880;2022-12-07T04:53:57;19.17;;;9.40;;
56269;SDS011;42176;43.240;27.880;2022-12-07T04:56:23;14.23;;;10.27;;
56269;SDS011;42176;43.240;27.880;2022-12-07T04:58:49;9.77;;;5.78;;
56269;SDS011;42176;43.240;27.880;2022-12-07T05:01:17;13.75;;;7.32;;
56269;SDS011;42176;43.240;27.880;2022-12-07T05:03:43;16.95;;;7.53;;
56269;SDS011;42176;43.240;27.880;2022-12-07T05:06:09;18.83;;;10.52;;
56269;SDS011;42176;43.240;27.880;2022-12-07T05:08:36;22.63;;;8.88;;
56269;SDS011;42176;43.240;27.880;2022-12-07T05:11:02;16.83;;;8.02;;
56269;SDS011;42176;43.240;27.880;2022-12-07T05:13:28;13.75;;;6.30;;
56269;SDS011;42176;43.240;27.880;2022-12-07T05:15:53;21.25;;;12.57;;
56269;SDS011;42176;43.240;27.880;2022-12-07T05:18:19;15.55;;;8.52;;
56269;SDS011;42176;43.240;27.880;2022-12-07T05:20:44;16.00;;;8.95;;
56269;SDS011;42176;43.240;27.880;2022-12-07T05:23:10;14.52;;;8.85;;
56269;SDS011;42176;43.240;27.880;2022-12-07T05:25:36;18.70;;;9.75;;
56269;SDS011;42176;43.240;27.880;2022-12-07T05:28:02;17.60;;;8.13;;
56269;SDS011;42176;43.240;27.880;2022-12-07T05:30:28;22.00;;;10.18;;
56269;SDS011;42176;43.240;27.880;2022-12-07T05:32:54;18.38;;;9.05;;
56269;SDS011;42176;43.240;27.880;2022-12-07T05:35:20;14.23;;;6.30;;
56269;SDS011;42176;43.240;27.880;2022-12-07T05:37:45;10.95;;;5.57;;
56269;SDS011;42176;43.240;27.880;2022-12-07T05:40:12;16.40;;;9.23;;
56269;SDS011;42176;43.240;27.880;2022-12-07T05:42:40;7.15;;;5.50;;
56269;SDS011;42176;43.240;27.880;2022-12-07T05:45:06;11.80;;;5.85;;
56269;SDS011;42176;43.240;27.880;2022-12-07T05:47:33;17.45;;;7.22;;
56269;SDS011;42176;43.240;27.880;2022-12-07T05:49:58;16.85;;;9.32;;
56269;SDS011;42176;43.240;27.880;2022-12-07T05:52:23;24.83;;;11.80;;
56269;SDS011;42176;43.240;27.880;2022-12-07T05:54:49;28.13;;;13.20;;
56269;SDS011;42176;43.240;27.880;2022-12-07T05:57:15;16.65;;;9.15;;
56269;SDS011;42176;43.240;27.880;2022-12-07T05:59:40;14.60;;;7.55;;
56269;SDS011;42176;43.240;27.880;2022-12-07T06:02:07;16.52;;;9.40;;
56269;SDS011;42176;43.240;27.880;2022-12-07T06:04:35;14.48;;;7.03;;
56269;SDS011;42176;43.240;27.880;2022-12-07T06:07:03;21.77;;;11.95;;
56269;SDS011;42176;43.240;27.880;2022-12-07T06:09:30;15.63;;;8.90;;
56269;SDS011;42176;43.240;27.880;2022-12-07T06:11:56;14.88;;;9.68;;
56269;SDS011;42176;43.240;27.880;2022-12-07T06:14:42;11.80;;;6.63;;
56269;SDS011;42176;43.240;27.880;2022-12-07T06:17:08;12.27;;;6.18;;
56269;SDS011;42176;43.240;27.880;2022-12-07T06:19:34;13.70;;;9.07;;
56269;SDS011;42176;43.240;27.880;2022-12-07T06:22:00;6.32;;;4.43;;
56269;SDS011;42176;43.240;27.880;2022-12-07T06:24:26;9.80;;;5.70;;
56269;SDS011;42176;43.240;27.880;2022-12-07T06:26:52;15.95;;;6.65;;
56269;SDS011;42176;43.240;27.880;2022-12-07T06:29:18;16.02;;;8.23;;
56269;SDS011;42176;43.240;27.880;2022-12-07T06:31:44;19.27;;;10.55;;
56269;SDS011;42176;43.240;27.880;2022-12-07T06:34:10;12.10;;;6.60;;
56269;SDS011;42176;43.240;27.880;2022-12-07T06:36:41;19.05;;;5.90;;
56269;SDS011;42176;43.240;27.880;2022-12-07T06:39:07;16.00;;;9.20;;
56269;SDS011;42176;43.240;27.880;2022-12-07T06:41:34;16.45;;;8.57;;
56269;SDS011;42176;43.240;27.880;2022-12-07T06:44:01;15.50;;;7.22;;
56269;SDS011;42176;43.240;27.880;2022-12-07T06:46:27;12.00;;;7.00;;
56269;SDS011;42176;43.240;27.880;2022-12-07T06:48:53;11.15;;;6.72;;
56269;SDS011;42176;43.240;27.880;2022-12-07T06:51:18;17.40;;;6.50;;
56269;SDS011;42176;43.240;27.880;2022-12-07T06:53:44;13.23;;;8.35;;
56269;SDS011;42176;43.240;27.880;2022-12-07T06:56:09;15.48;;;8.18;;
56269;SDS011;42176;43.240;27.880;2022-12-07T06:58:35;18.75;;;8.02;;
56269;SDS011;42176;43.240;27.880;2022-12-07T07:01:00;12.10;;;7.63;;
56269;SDS011;42176;43.240;27.880;2022-12-07T07:03:26;11.68;;;6.65;;
56269;SDS011;42176;43.240;27.880;2022-12-07T07:05:51;10.05;;;6.55;;
56269;SDS011;42176;43.240;27.880;2022-12-07T07:08:17;9.57;;;5.85;;
56269;SDS011;42176;43.240;27.880;2022-12-07T07:10:42;8.43;;;6.13;;
56269;SDS011;42176;43.240;27.880;2022-12-07T07:13:08;10.68;;;6.15;;
56269;SDS011;42176;43.240;27.880;2022-12-07T07:15:34;11.23;;;6.60;;
56269;SDS011;42176;43.240;27.880;2022-12-07T07:18:00;10.10;;;6.40;;
56269;SDS011;42176;43.240;27.880;2022-12-07T07:20:25;12.30;;;7.30;;
56269;SDS011;42176;43.240;27.880;2022-12-07T07:22:53;10.13;;;6.22;;
56269;SDS011;42176;43.240;27.880;2022-12-07T07:25:19;5.72;;;4.03;;
56269;SDS011;42176;43.240;27.880;2022-12-07T07:27:44;12.43;;;8.52;;
56269;SDS011;42176;43.240;27.880;2022-12-07T07:30:10;12.93;;;7.35;;
56269;SDS011;42176;43.240;27.880;2022-12-07T07:32:36;16.55;;;7.40;;
56269;SDS011;42176;43.240;27.880;2022-12-07T07:35:01;10.77;;;6.30;;
56269;SDS011;42176;43.240;27.880;2022-12-07T07:37:27;14.85;;;7.65;;
56269;SDS011;42176;43.240;27.880;2022-12-07T07:39:53;13.18;;;7.40;;
56269;SDS011;42176;43.240;27.880;2022-12-07T07:42:18;14.85;;;6.60;;
56269;SDS011;42176;43.240;27.880;2022-12-07T07:44:44;13.65;;;6.85;;
56269;SDS011;42176;43.240;27.880;2022-12-07T07:47:09;12.82;;;6.30;;
56269;SDS011;42176;43.240;27.880;2022-12-07T07:49:35;11.57;;;6.60;;
56269;SDS011;42176;43.240;27.880;2022-12-07T07:52:00;10.13;;;6.45;;
56269;SDS011;42176;43.240;27.880;2022-12-07T07:54:26;13.48;;;6.03;;
56269;SDS011;42176;43.240;27.880;2022-12-07T07:56:52;13.73;;;7.95;;
56269;SDS011;42176;43.240;27.880;2022-12-07T07:59:18;13.05;;;8.00;;
56269;SDS011;42176;43.240;27.880;2022-12-07T08:01:43;11.35;;;7.75;;
56269;SDS011;42176;43.240;27.880;2022-12-07T08:04:08;11.52;;;7.50;;
56269;SDS011;42176;43.240;27.880;2022-12-07T08:06:34;20.50;;;7.72;;
56269;SDS011;42176;43.240;27.880;2022-12-07T08:09:00;18.52;;;8.68;;
56269;SDS011;42176;43.240;27.880;2022-12-07T08:11:25;12.05;;;8.93;;
56269;SDS011;42176;43.240;27.880;2022-12-07T08:13:50;14.48;;;9.32;;
56269;SDS011;42176;43.240;27.880;2022-12-07T08:16:16;15.25;;;8.15;;
56269;SDS011;42176;43.240;27.880;2022-12-07T08:18:42;17.88;;;8.05;;
56269;SDS011;42176;43.240;27.880;2022-12-07T08:21:09;13.70;;;7.30;;
56269;SDS011;42176;43.240;27.880;2022-12-07T08:23:37;10.80;;;7.05;;
56269;SDS011;42176;43.240;27.880;2022-12-07T08:26:06;11.90;;;6.32;;
56269;SDS011;42176;43.240;27.880;2022-12-07T08:28:33;11.75;;;6.07;;
56269;SDS011;42176;43.240;27.880;2022-12-07T08:31:02;10.88;;;6.05;;
56269;SDS011;42176;43.240;27.880;2022-12-07T08:33:29;10.35;;;6.10;;
56269;SDS011;42176;43.240;27.880;2022-12-07T08:36:00;15.25;;;6.45;;
56269;SDS011;42176;43.240;27.880;2022-12-07T08:38:27;12.20;;;5.25;;
56269;SDS011;42176;43.240;27.880;2022-12-07T08:40:56;11.95;;;6.28;;
56269;SDS011;42176;43.240;27.880;2022-12-07T08:43:22;14.25;;;5.95;;
56269;SDS011;42176;43.240;27.880;2022-12-07T08:45:48;12.52;;;5.82;;
56269;SDS011;42176;43.240;27.880;2022-12-07T08:48:29;11.10;;;5.65;;
56269;SDS011;42176;43.240;27.880;2022-12-07T08:50:55;9.95;;;5.45;;
56269;SDS011;42176;43.240;27.880;2022-12-07T08:53:20;11.38;;;5.68;;
56269;SDS011;42176;43.240;27.880;2022-12-07T08:55:46;9.75;;;5.22;;
56269;SDS011;42176;43.240;27.880;2022-12-07T08:58:13;12.15;;;5.13;;
56269;SDS011;42176;43.240;27.880;2022-12-07T09:00:39;9.50;;;5.05;;
56269;SDS011;42176;43.240;27.880;2022-12-07T09:03:04;12.25;;;6.25;;
56269;SDS011;42176;43.240;27.880;2022-12-07T09:05:30;12.63;;;5.82;;
56269;SDS011;42176;43.240;27.880;2022-12-07T09:07:59;15.02;;;5.57;;
56269;SDS011;42176;43.240;27.880;2022-12-07T09:10:26;10.40;;;4.88;;
56269;SDS011;42176;43.240;27.880;2022-12-07T09:12:52;9.90;;;5.43;;
56269;SDS011;42176;43.240;27.880;2022-12-07T09:15:17;6.55;;;3.88;;
56269;SDS011;42176;43.240;27.880;2022-12-07T09:17:43;11.27;;;4.93;;
56269;SDS011;42176;43.240;27.880;2022-12-07T09:20:08;9.55;;;4.90;;
56269;SDS011;42176;43.240;27.880;2022-12-07T09:22:35;7.18;;;4.10;;
56269;SDS011;42176;43.240;27.880;2022-12-07T09:25:01;10.18;;;4.55;;
56269;SDS011;42176;43.240;27.880;2022-12-07T09:27:27;7.30;;;4.20;;
56269;SDS011;42176;43.240;27.880;2022-12-07T09:29:52;9.18;;;5.55;;
56269;SDS011;42176;43.240;27.880;2022-12-07T09:32:18;8.40;;;5.18;;
56269;SDS011;42176;43.240;27.880;2022-12-07T09:34:43;8.32;;;5.20;;
56269;SDS011;42176;43.240;27.880;2022-12-07T09:37:09;10.73;;;4.68;;
56269;SDS011;42176;43.240;27.880;2022-12-07T09:39:37;12.25;;;5.20;;
56269;SDS011;42176;43.240;27.880;2022-12-07T09:42:03;9.98;;;4.53;;
56269;SDS011;42176;43.240;27.880;2022-12-07T09:44:30;11.20;;;4.88;;
56269;SDS011;42176;43.240;27.880;2022-12-07T09:46:55;12.52;;;5.30;;
56269;SDS011;42176;43.240;27.880;2022-12-07T09:49:23;9.18;;;5.22;;
56269;SDS011;42176;43.240;27.880;2022-12-07T09:52:33;9.77;;;4.95;;
56269;SDS011;42176;43.240;27.880;2022-12-07T09:54:46;6.90;;;4.80;;
56269;SDS011;42176;43.240;27.880;2022-12-07T09:57:14;11.40;;;5.32;;
56269;SDS011;42176;43.240;27.880;2022-12-07T09:59:39;15.25;;;4.90;;
56269;SDS011;42176;43.240;27.880;2022-12-07T10:04:58;14.45;;;5.47;;
56269;SDS011;42176;43.240;27.880;2022-12-07T10:07:24;15.98;;;5.03;;
56269;SDS011;42176;43.240;27.880;2022-12-07T10:09:49;16.70;;;6.05;;
56269;SDS011;42176;43.240;27.880;2022-12-07T10:12:15;10.57;;;5.47;;
56269;SDS011;42176;43.240;27.880;2022-12-07T10:14:52;9.98;;;5.53;;
56269;SDS011;42176;43.240;27.880;2022-12-07T10:17:39;12.15;;;5.88;;
56269;SDS011;42176;43.240;27.880;2022-12-07T10:20:16;12.27;;;4.93;;
56269;SDS011;42176;43.240;27.880;2022-12-07T10:22:56;7.78;;;4.88;;
56269;SDS011;42176;43.240;27.880;2022-12-07T10:25:27;10.38;;;5.45;;
56269;SDS011;42176;43.240;27.880;2022-12-07T10:28:00;10.37;;;5.50;;
56269;SDS011;42176;43.240;27.880;2022-12-07T10:36:17;10.63;;;6.78;;
56269;SDS011;42176;43.240;27.880;2022-12-07T10:38:49;13.57;;;5.18;;
56269;SDS011;42176;43.240;27.880;2022-12-07T10:41:17;11.55;;;6.43;;
56269;SDS011;42176;43.240;27.880;2022-12-07T10:43:49;13.50;;;6.43;;
56269;SDS011;42176;43.240;27.880;2022-12-07T10:46:22;15.52;;;5.95;;
56269;SDS011;42176;43.240;27.880;2022-12-07T10:49:01;7.70;;;4.28;;
56269;SDS011;42176;43.240;27.880;2022-12-07T10:51:43;10.13;;;5.05;;
56269;SDS011;42176;43.240;27.880;2022-12-07T10:57:45;11.15;;;5.57;;
56269;SDS011;42176;43.240;27.880;2022-12-07T11:00:25;9.27;;;4.30;;
56269;SDS011;42176;43.240;27.880;2022-12-07T11:09:00;11.52;;;6.13;;
56269;SDS011;42176;43.240;27.880;2022-12-07T11:13:58;14.20;;;5.78;;
56269;SDS011;42176;43.240;27.880;2022-12-07T11:16:49;9.70;;;5.43;;
56269;SDS011;42176;43.240;27.880;2022-12-07T11:22:20;15.90;;;6.15;;
56269;SDS011;42176;43.240;27.880;2022-12-07T11:33:44;10.75;;;5.65;;
56269;SDS011;42176;43.240;27.880;2022-12-07T11:39:28;12.80;;;6.05;;
56269;SDS011;42176;43.240;27.880;2022-12-07T11:42:11;11.45;;;6.05;;
56269;SDS011;42176;43.240;27.880;2022-12-07T11:44:43;15.18;;;7.18;;
56269;SDS011;42176;43.240;27.880;2022-12-07T11:47:38;13.73;;;7.05;;
56269;SDS011;42176;43.240;27.880;2022-12-07T11:55:43;10.82;;;5.28;;
56269;SDS011;42176;43.240;27.880;2022-12-07T12:04:15;10.40;;;5.43;;
56269;SDS011;42176;43.240;27.880;2022-12-07T12:07:13;13.73;;;6.30;;
56269;SDS011;42176;43.240;27.880;2022-12-07T12:09:48;18.80;;;6.18;;
56269;SDS011;42176;43.240;27.880;2022-12-07T12:17:43;11.23;;;6.30;;
56269;SDS011;42176;43.240;27.880;2022-12-07T12:20:20;13.25;;;6.30;;
56269;SDS011;42176;43.240;27.880;2022-12-07T12:23:19;10.90;;;5.70;;
56269;SDS011;42176;43.240;27.880;2022-12-07T12:25:52;9.93;;;5.63;;
56269;SDS011;42176;43.240;27.880;2022-12-07T12:29:13;14.02;;;5.90;;
56269;SDS011;42176;43.240;27.880;2022-12-07T12:33:54;15.77;;;6.22;;
56269;SDS011;42176;43.240;27.880;2022-12-07T12:36:26;13.95;;;6.07;;
56269;SDS011;42176;43.240;27.880;2022-12-07T12:44:46;12.43;;;6.30;;
56269;SDS011;42176;43.240;27.880;2022-12-07T12:47:03;13.40;;;6.88;;
56269;SDS011;42176;43.240;27.880;2022-12-07T12:50:11;18.30;;;5.45;;
56269;SDS011;42176;43.240;27.880;2022-12-07T12:57:34;13.60;;;4.97;;
56269;SDS011;42176;43.240;27.880;2022-12-07T13:02:53;12.80;;;5.80;;
56269;SDS011;42176;43.240;27.880;2022-12-07T13:05:21;12.35;;;5.72;;
56269;SDS011;42176;43.240;27.880;2022-12-07T13:15:36;12.57;;;6.00;;
56269;SDS011;42176;43.240;27.880;2022-12-07T13:18:04;13.70;;;6.90;;
56269;SDS011;42176;43.240;27.880;2022-12-07T13:20:49;13.65;;;6.30;;
56269;SDS011;42176;43.240;27.880;2022-12-07T13:23:18;15.55;;;7.75;;
56269;SDS011;42176;43.240;27.880;2022-12-07T13:28:43;12.45;;;6.80;;
56269;SDS011;42176;43.240;27.880;2022-12-07T13:33:42;13.30;;;6.35;;
56269;SDS011;42176;43.240;27.880;2022-12-07T13:36:17;11.50;;;5.78;;
56269;SDS011;42176;43.240;27.880;2022-12-07T13:39:28;12.95;;;5.72;;
56269;SDS011;42176;43.240;27.880;2022-12-07T13:41:43;7.53;;;4.88;;
56269;SDS011;42176;43.240;27.880;2022-12-07T13:44:13;10.35;;;5.20;;
56269;SDS011;42176;43.240;27.880;2022-12-07T13:46:43;11.65;;;5.53;;
56269;SDS011;42176;43.240;27.880;2022-12-07T13:51:50;10.40;;;5.93;;
56269;SDS011;42176;43.240;27.880;2022-12-07T13:54:17;12.98;;;6.47;;
56269;SDS011;42176;43.240;27.880;2022-12-07T13:56:43;13.00;;;6.10;;
56269;SDS011;42176;43.240;27.880;2022-12-07T13:59:13;13.45;;;6.72;;
56269;SDS011;42176;43.240;27.880;2022-12-07T14:01:42;19.33;;;6.53;;
56269;SDS011;42176;43.240;27.880;2022-12-07T14:04:28;14.85;;;6.05;;
56269;SDS011;42176;43.240;27.880;2022-12-07T14:06:56;16.08;;;6.32;;
56269;SDS011;42176;43.240;27.880;2022-12-07T14:09:23;16.50;;;6.40;;
56269;SDS011;42176;43.240;27.880;2022-12-07T14:11:52;11.27;;;6.88;;
56269;SDS011;42176;43.240;27.880;2022-12-07T14:14:21;24.42;;;7.65;;
56269;SDS011;42176;43.240;27.880;2022-12-07T14:16:56;15.45;;;6.78;;
56269;SDS011;42176;43.240;27.880;2022-12-07T14:20:28;14.30;;;7.90;;
56269;SDS011;42176;43.240;27.880;2022-12-07T14:22:35;14.40;;;6.65;;
56269;SDS011;42176;43.240;27.880;2022-12-07T14:25:15;20.02;;;6.72;;
56269;SDS011;42176;43.240;27.880;2022-12-07T14:27:48;17.98;;;7.38;;
56269;SDS011;42176;43.240;27.880;2022-12-07T14:30:18;18.35;;;7.32;;
56269;SDS011;42176;43.240;27.880;2022-12-07T14:32:44;15.23;;;7.45;;
56269;SDS011;42176;43.240;27.880;2022-12-07T14:35:15;25.02;;;7.78;;
56269;SDS011;42176;43.240;27.880;2022-12-07T14:37:43;20.38;;;7.53;;
56269;SDS011;42176;43.240;27.880;2022-12-07T14:40:12;20.10;;;7.78;;
56269;SDS011;42176;43.240;27.880;2022-12-07T14:42:43;23.17;;;7.40;;
56269;SDS011;42176;43.240;27.880;2022-12-07T14:45:19;23.65;;;8.57;;
56269;SDS011;42176;43.240;27.880;2022-12-07T14:47:46;16.70;;;7.55;;
56269;SDS011;42176;43.240;27.880;2022-12-07T14:50:16;30.67;;;8.90;;
56269;SDS011;42176;43.240;27.880;2022-12-07T14:52:45;20.33;;;9.57;;
56269;SDS011;42176;43.240;27.880;2022-12-07T14:55:26;25.23;;;9.43;;
56269;SDS011;42176;43.240;27.880;2022-12-07T14:57:54;29.90;;;9.05;;
56269;SDS011;42176;43.240;27.880;2022-12-07T15:00:20;32.65;;;9.93;;
56269;SDS011;42176;43.240;27.880;2022-12-07T15:05:31;28.05;;;10.60;;
56269;SDS011;42176;43.240;27.880;2022-12-07T15:07:58;27.40;;;11.23;;
56269;SDS011;42176;43.240;27.880;2022-12-07T15:10:27;38.40;;;13.52;;
56269;SDS011;42176;43.240;27.880;2022-12-07T15:12:57;27.98;;;13.13;;
56269;SDS011;42176;43.240;27.880;2022-12-07T15:15:43;31.88;;;13.02;;
56269;SDS011;42176;43.240;27.880;2022-12-07T15:18:18;23.92;;;11.85;;
56269;SDS011;42176;43.240;27.880;2022-12-07T15:20:45;29.63;;;11.15;;
56269;SDS011;42176;43.240;27.880;2022-12-07T15:23:11;24.17;;;12.45;;
56269;SDS011;42176;43.240;27.880;2022-12-07T15:25:44;30.83;;;13.80;;
56269;SDS011;42176;43.240;27.880;2022-12-07T15:28:12;31.58;;;13.65;;
56269;SDS011;42176;43.240;27.880;2022-12-07T15:30:38;38.75;;;14.77;;
56269;SDS011;42176;43.240;27.880;2022-12-07T15:33:04;39.40;;;17.35;;
56269;SDS011;42176;43.240;27.880;2022-12-07T15:35:30;34.92;;;15.20;;
56269;SDS011;42176;43.240;27.880;2022-12-07T15:37:55;43.10;;;16.35;;
56269;SDS011;42176;43.240;27.880;2022-12-07T15:40:20;42.78;;;18.75;;
56269;SDS011;42176;43.240;27.880;2022-12-07T15:42:46;27.38;;;13.80;;
56269;SDS011;42176;43.240;27.880;2022-12-07T15:45:12;28.30;;;14.05;;
56269;SDS011;42176;43.240;27.880;2022-12-07T15:47:41;32.50;;;14.40;;
56269;SDS011;42176;43.240;27.880;2022-12-07T15:50:09;34.17;;;15.32;;
56269;SDS011;42176;43.240;27.880;2022-12-07T15:52:37;33.75;;;14.00;;
56269;SDS011;42176;43.240;27.880;2022-12-07T15:55:03;34.28;;;14.35;;
56269;SDS011;42176;43.240;27.880;2022-12-07T15:57:29;27.90;;;14.52;;
56269;SDS011;42176;43.240;27.880;2022-12-07T15:59:55;30.15;;;13.75;;
56269;SDS011;42176;43.240;27.880;2022-12-07T16:02:21;44.47;;;17.58;;
56269;SDS011;42176;43.240;27.880;2022-12-07T16:04:47;29.15;;;14.30;;
56269;SDS011;42176;43.240;27.880;2022-12-07T16:07:13;38.97;;;15.50;;
56269;SDS011;42176;43.240;27.880;2022-12-07T16:09:40;34.58;;;14.25;;
56269;SDS011;42176;43.240;27.880;2022-12-07T16:12:07;32.33;;;15.68;;
56269;SDS011;42176;43.240;27.880;2022-12-07T16:14:33;45.47;;;17.17;;
56269;SDS011;42176;43.240;27.880;2022-12-07T16:16:59;31.63;;;12.95;;
56269;SDS011;42176;43.240;27.880;2022-12-07T16:19:24;43.42;;;16.65;;
56269;SDS011;42176;43.240;27.880;2022-12-07T16:21:50;35.55;;;15.90;;
56269;SDS011;42176;43.240;27.880;2022-12-07T16:24:15;57.85;;;16.65;;
56269;SDS011;42176;43.240;27.880;2022-12-07T16:26:41;37.10;;;14.98;;
56269;SDS011;42176;43.240;27.880;2022-12-07T16:29:07;27.08;;;13.55;;
56269;SDS011;42176;43.240;27.880;2022-12-07T16:31:38;49.85;;;17.00;;